Time;durP1;ratioP1;P1;durP2;ratioP2;P2;SDS_P1;SDS_P2;PMS_P1;PMS_P2;Temp;Humidity;BMP_temperature;BMP_pressure;BME280_temperature;BME280_humidity;BME280_pressure;Samples;Min_cycle;Max_cycle;Signal;HPM_P1;HPM_P2
2022/02/07 00:02:09;;;;;;;9.95;6.75;;;;;;;;;;4937829;29;20114;-77
2022/02/07 00:04:37;;;;;;;12.40;6.75;;;;;;;;;;4927515;29;20103;-76
2022/02/07 00:07:09;;;;;;;12.65;6.90;;;;;;;;;;4934138;29;20063;-75
2022/02/07 00:09:36;;;;;;;12.68;6.80;;;;;;;;;;4911421;29;20044;-77
2022/02/07 00:12:06;;;;;;;11.13;6.85;;;;;;;;;;4925407;29;20032;-76
2022/02/07 00:14:32;;;;;;;13.93;7.72;;;;;;;;;;4929891;29;20024;-76
2022/02/07 00:16:59;;;;;;;11.65;7.95;;;;;;;;;;4905082;29;20103;-75
2022/02/07 00:19:28;;;;;;;11.70;7.57;;;;;;;;;;4929966;29;20036;-76
2022/02/07 00:21:58;;;;;;;12.90;7.82;;;;;;;;;;4912735;29;20048;-76
2022/02/07 00:24:24;;;;;;;12.05;7.68;;;;;;;;;;4926200;29;20039;-75
2022/02/07 00:26:50;;;;;;;12.18;8.25;;;;;;;;;;4935831;29;20039;-75
2022/02/07 00:29:18;;;;;;;13.73;8.77;;;;;;;;;;4982218;28;20045;-75
2022/02/07 00:31:49;;;;;;;13.25;9.10;;;;;;;;;;5017359;28;20024;-77
2022/02/07 00:34:15;;;;;;;13.70;9.25;;;;;;;;;;5018988;28;20022;-75
2022/02/07 00:36:42;;;;;;;13.82;8.98;;;;;;;;;;5020411;28;20061;-75
2022/02/07 00:39:16;;;;;;;13.02;8.70;;;;;;;;;;5018055;28;20018;-75
2022/02/07 00:41:57;;;;;;;12.88;7.95;;;;;;;;;;5001221;28;20084;-75
2022/02/07 00:44:23;;;;;;;11.32;7.30;;;;;;;;;;5015372;28;20037;-74
2022/02/07 00:46:57;;;;;;;11.73;6.90;;;;;;;;;;5019137;28;20050;-75
2022/02/07 00:49:23;;;;;;;11.50;6.95;;;;;;;;;;5003860;28;20462;-75
2022/02/07 00:51:49;;;;;;;10.60;6.65;;;;;;;;;;5019196;28;20057;-75
2022/02/07 00:54:15;;;;;;;9.38;6.50;;;;;;;;;;5021173;28;20022;-75
2022/02/07 00:56:41;;;;;;;8.50;6.03;;;;;;;;;;5014826;28;20398;-75
2022/02/07 00:59:12;;;;;;;10.02;6.63;;;;;;;;;;5004559;28;20550;-75
2022/02/07 01:01:38;;;;;;;9.55;5.95;;;;;;;;;;5020536;28;20502;-75
2022/02/07 01:04:04;;;;;;;12.75;6.30;;;;;;;;;;5021021;28;20040;-75
2022/02/07 01:06:32;;;;;;;12.23;6.75;;;;;;;;;;5021820;28;20030;-75
2022/02/07 01:09:41;;;;;;;8.88;6.47;;;;;;;;;;5003838;28;20030;-76
2022/02/07 01:23:03;;;;;;;16.42;10.90;;;;;;;;;;5019332;28;20112;-76
2022/02/07 01:55:58;;;;;;;11.65;6.95;;;;;;;;;;4922191;29;20067;-76
2022/02/07 01:58:25;;;;;;;9.98;6.32;;;;;;;;;;4926474;29;20047;-76
2022/02/07 02:00:51;;;;;;;9.43;6.72;;;;;;;;;;4923974;29;20044;-76
2022/02/07 02:03:17;;;;;;;11.77;6.88;;;;;;;;;;4942502;29;20567;-76
2022/02/07 02:05:43;;;;;;;11.02;7.03;;;;;;;;;;4929924;29;20451;-75
2022/02/07 02:08:11;;;;;;;12.90;7.40;;;;;;;;;;4927659;29;20115;-75
2022/02/07 02:10:41;;;;;;;14.25;8.93;;;;;;;;;;4932973;29;20095;-76
2022/02/07 02:13:14;;;;;;;12.65;7.68;;;;;;;;;;4928005;29;20032;-76
2022/02/07 02:47:24;;;;;;;9.60;5.68;;;;;;;;;;5021629;28;20522;-76
2022/02/07 02:50:16;;;;;;;9.98;6.18;;;;;;;;;;5021429;28;20085;-75
2022/02/07 02:52:42;;;;;;;11.50;6.20;;;;;;;;;;5019998;28;20030;-75
2022/02/07 02:55:11;;;;;;;10.63;6.38;;;;;;;;;;5023063;28;20026;-75
2022/02/07 02:57:37;;;;;;;9.65;5.88;;;;;;;;;;5022194;28;20406;-75
2022/02/07 03:00:05;;;;;;;10.38;6.75;;;;;;;;;;5022944;28;20026;-76
2022/02/07 03:02:31;;;;;;;10.40;6.20;;;;;;;;;;5020677;28;20030;-76
2022/02/07 03:04:57;;;;;;;11.80;6.07;;;;;;;;;;5022187;28;20502;-76
2022/02/07 03:07:25;;;;;;;9.57;6.30;;;;;;;;;;5003926;28;20480;-75
2022/02/07 03:09:55;;;;;;;10.63;5.50;;;;;;;;;;5022414;28;20032;-75
2022/02/07 03:12:21;;;;;;;12.52;5.90;;;;;;;;;;4998506;28;20056;-75
2022/02/07 03:14:49;;;;;;;8.13;5.40;;;;;;;;;;5022241;28;20097;-75
2022/02/07 03:17:17;;;;;;;8.77;5.18;;;;;;;;;;5013486;28;20034;-75
2022/02/07 03:19:45;;;;;;;9.35;5.15;;;;;;;;;;5023660;28;20041;-75
2022/02/07 03:22:12;;;;;;;8.65;5.30;;;;;;;;;;5002799;28;20022;-76
2022/02/07 03:24:39;;;;;;;8.52;5.80;;;;;;;;;;5021513;28;20034;-75
2022/02/07 03:27:05;;;;;;;8.93;4.90;;;;;;;;;;5021708;28;20344;-75
2022/02/07 03:29:31;;;;;;;10.75;5.38;;;;;;;;;;5022240;28;20030;-75
2022/02/07 03:31:57;;;;;;;7.00;5.07;;;;;;;;;;5021733;28;20057;-75
2022/02/07 03:34:23;;;;;;;6.97;4.75;;;;;;;;;;5022270;28;20061;-76
2022/02/07 03:36:50;;;;;;;9.10;5.28;;;;;;;;;;5020824;28;20060;-75
2022/02/07 03:39:16;;;;;;;9.43;4.70;;;;;;;;;;5020732;28;20109;-76
2022/02/07 03:41:42;;;;;;;8.93;4.70;;;;;;;;;;5002700;28;20408;-76
2022/02/07 03:44:10;;;;;;;8.90;5.00;;;;;;;;;;5014924;28;20476;-75
2022/02/07 03:46:37;;;;;;;13.15;4.97;;;;;;;;;;5021397;28;20046;-76
2022/02/07 03:49:05;;;;;;;7.70;4.78;;;;;;;;;;5022787;28;20040;-76
2022/02/07 03:51:34;;;;;;;7.45;4.95;;;;;;;;;;5010745;28;20022;-76
2022/02/07 03:54:00;;;;;;;8.25;4.78;;;;;;;;;;5005040;28;20032;-76
2022/02/07 03:56:26;;;;;;;10.73;5.18;;;;;;;;;;5023770;28;20048;-75
2022/02/07 03:58:53;;;;;;;9.52;4.57;;;;;;;;;;5020215;28;20060;-76
2022/02/07 04:01:22;;;;;;;7.20;4.55;;;;;;;;;;5021193;28;20092;-76
2022/02/07 04:03:48;;;;;;;9.18;5.10;;;;;;;;;;5019308;28;20506;-75
2022/02/07 04:06:18;;;;;;;7.43;4.57;;;;;;;;;;5022034;28;20022;-76
2022/02/07 04:08:47;;;;;;;9.43;5.18;;;;;;;;;;5020326;28;20038;-76
2022/02/07 04:13:50;;;;;;;11.57;5.13;;;;;;;;;;5016309;28;20468;-75
2022/02/07 04:16:19;;;;;;;10.70;5.13;;;;;;;;;;5022469;28;20028;-77
2022/02/07 04:21:16;;;;;;;14.50;7.70;;;;;;;;;;5010420;28;20058;-77
2022/02/07 04:23:42;;;;;;;9.68;5.90;;;;;;;;;;5011687;28;20030;-77
2022/02/07 04:26:08;;;;;;;10.82;5.90;;;;;;;;;;5020155;28;20034;-77
2022/02/07 04:28:37;;;;;;;7.38;4.50;;;;;;;;;;5023610;28;20108;-75
2022/02/07 04:31:03;;;;;;;15.55;4.80;;;;;;;;;;5022058;28;20026;-78
2022/02/07 04:33:33;;;;;;;7.88;4.45;;;;;;;;;;5005927;28;20048;-78
2022/02/07 04:35:59;;;;;;;6.82;4.28;;;;;;;;;;5020234;28;20033;-76
2022/02/07 04:38:25;;;;;;;10.30;4.53;;;;;;;;;;5016808;28;20109;-76
2022/02/07 04:40:51;;;;;;;10.85;4.70;;;;;;;;;;5019286;28;20037;-76
2022/02/07 04:43:18;;;;;;;9.55;4.43;;;;;;;;;;5018382;28;20545;-76
2022/02/07 05:01:30;;;;;;;7.70;3.90;;;;;;;;;;5020058;28;20040;-76
2022/02/07 05:04:05;;;;;;;6.22;3.60;;;;;;;;;;5017076;28;20046;-76
2022/02/07 05:14:49;;;;;;;7.03;4.10;;;;;;;;;;5021020;28;20041;-76
2022/02/07 05:17:17;;;;;;;6.38;3.70;;;;;;;;;;5019840;28;20384;-75
2022/02/07 05:19:43;;;;;;;5.80;3.63;;;;;;;;;;5019817;28;20026;-75
2022/02/07 05:22:09;;;;;;;9.38;4.03;;;;;;;;;;5020360;28;20068;-76
2022/02/07 05:24:35;;;;;;;9.02;3.65;;;;;;;;;;5019516;28;20038;-76
2022/02/07 05:27:06;;;;;;;10.00;4.15;;;;;;;;;;5019689;28;20448;-76
2022/02/07 05:29:32;;;;;;;9.82;3.90;;;;;;;;;;4992375;28;20033;-76
2022/02/07 05:31:58;;;;;;;11.45;3.78;;;;;;;;;;5020776;28;20025;-76
2022/02/07 05:34:26;;;;;;;14.10;4.47;;;;;;;;;;5003865;28;20034;-76
2022/02/07 05:36:55;;;;;;;14.18;4.95;;;;;;;;;;5020452;28;20049;-75
2022/02/07 05:39:21;;;;;;;10.05;5.93;;;;;;;;;;5003665;28;20049;-76
2022/02/07 05:41:47;;;;;;;11.00;3.88;;;;;;;;;;5002665;28;20095;-76
2022/02/07 05:44:14;;;;;;;7.72;4.55;;;;;;;;;;5008286;28;20045;-76
2022/02/07 05:46:41;;;;;;;64.43;34.63;;;;;;;;;;5010558;28;20536;-76
2022/02/07 05:49:07;;;;;;;17.55;10.52;;;;;;;;;;5003954;28;20027;-76
2022/02/07 05:51:33;;;;;;;12.05;5.63;;;;;;;;;;5005658;28;20046;-76
2022/02/07 05:54:00;;;;;;;8.10;4.70;;;;;;;;;;5013048;28;20170;-76
2022/02/07 05:56:26;;;;;;;16.42;6.55;;;;;;;;;;5001188;28;20029;-76
2022/02/07 05:58:52;;;;;;;15.70;6.28;;;;;;;;;;5001517;28;20109;-76
2022/02/07 06:01:18;;;;;;;13.27;5.50;;;;;;;;;;5008511;28;20457;-76
2022/02/07 06:03:44;;;;;;;8.35;5.00;;;;;;;;;;5022429;28;20506;-76
2022/02/07 06:06:12;;;;;;;16.67;6.93;;;;;;;;;;5021087;28;20522;-76
2022/02/07 06:08:38;;;;;;;39.20;9.13;;;;;;;;;;5023470;28;20080;-76
2022/02/07 06:11:11;;;;;;;15.93;6.43;;;;;;;;;;5021670;28;20531;-76
2022/02/07 06:13:38;;;;;;;12.27;6.43;;;;;;;;;;5021982;28;20026;-76
2022/02/07 06:16:05;;;;;;;11.23;6.18;;;;;;;;;;5022629;28;20053;-76
2022/02/07 06:18:33;;;;;;;17.52;8.05;;;;;;;;;;5021345;28;20022;-76
2022/02/07 06:21:05;;;;;;;13.45;7.43;;;;;;;;;;5020429;28;20117;-77
2022/02/07 06:23:33;;;;;;;14.02;7.40;;;;;;;;;;5020047;28;20451;-76
2022/02/07 06:25:59;;;;;;;18.48;7.18;;;;;;;;;;5020390;28;20434;-76
2022/02/07 06:28:28;;;;;;;15.00;8.95;;;;;;;;;;5020282;28;20036;-75
2022/02/07 06:30:55;;;;;;;13.88;6.90;;;;;;;;;;5019502;28;20018;-75
2022/02/07 06:33:22;;;;;;;14.63;5.40;;;;;;;;;;5019731;28;20479;-75
2022/02/07 06:35:48;;;;;;;16.05;7.35;;;;;;;;;;5021236;28;20033;-76
2022/02/07 06:38:14;;;;;;;19.88;9.40;;;;;;;;;;5019718;28;20030;-77
2022/02/07 06:40:40;;;;;;;52.92;23.48;;;;;;;;;;5019307;28;20038;-77
2022/02/07 06:43:06;;;;;;;54.63;31.73;;;;;;;;;;5020989;28;20022;-77
2022/02/07 06:45:32;;;;;;;47.13;29.20;;;;;;;;;;5003826;28;20061;-77
2022/02/07 06:47:58;;;;;;;116.57;73.80;;;;;;;;;;5019289;28;20374;-77
2022/02/07 06:50:24;;;;;;;54.70;41.38;;;;;;;;;;5004275;28;20080;-76
2022/02/07 06:52:50;;;;;;;28.67;19.95;;;;;;;;;;5017542;28;20057;-78
2022/02/07 06:55:16;;;;;;;21.58;9.32;;;;;;;;;;5015210;28;20037;-77
2022/02/07 06:57:42;;;;;;;15.60;6.10;;;;;;;;;;5022056;28;20085;-77
2022/02/07 07:00:10;;;;;;;15.00;6.40;;;;;;;;;;5022637;28;20073;-76
2022/02/07 07:02:36;;;;;;;12.63;6.90;;;;;;;;;;5007970;28;20064;-74
2022/02/07 07:05:10;;;;;;;7.53;4.50;;;;;;;;;;5024152;28;20034;-76
2022/02/07 07:07:36;;;;;;;7.93;4.15;;;;;;;;;;5002993;28;20091;-75
2022/02/07 07:10:02;;;;;;;8.48;5.97;;;;;;;;;;5024170;28;20149;-77
2022/02/07 07:12:29;;;;;;;10.43;6.53;;;;;;;;;;5022837;28;20406;-75
2022/02/07 07:15:10;;;;;;;7.97;4.85;;;;;;;;;;5025172;28;20022;-74
2022/02/07 07:17:36;;;;;;;8.15;4.95;;;;;;;;;;5023724;28;20030;-76
2022/02/07 07:20:06;;;;;;;11.75;6.53;;;;;;;;;;5023408;28;20026;-73
2022/02/07 07:22:59;;;;;;;15.95;7.57;;;;;;;;;;5033440;28;20034;-80
2022/02/07 07:25:44;;;;;;;9.48;4.47;;;;;;;;;;4983179;28;20053;-74
2022/02/07 07:28:13;;;;;;;8.05;4.45;;;;;;;;;;4985180;28;20039;-78
2022/02/07 07:30:48;;;;;;;7.78;4.70;;;;;;;;;;4986002;28;20038;-75
2022/02/07 07:33:28;;;;;;;9.10;5.32;;;;;;;;;;4981859;28;20035;-77
2022/02/07 07:35:59;;;;;;;11.68;6.05;;;;;;;;;;4991168;28;20034;-79
2022/02/07 07:38:35;;;;;;;14.63;7.90;;;;;;;;;;4987040;28;20027;-79
2022/02/07 07:41:11;;;;;;;12.25;6.13;;;;;;;;;;4990518;28;20031;-80
2022/02/07 07:43:45;;;;;;;9.57;4.38;;;;;;;;;;4988378;28;20039;-78
2022/02/07 07:46:16;;;;;;;10.85;5.75;;;;;;;;;;4989116;28;20046;-78
2022/02/07 07:48:49;;;;;;;13.00;7.07;;;;;;;;;;4984466;28;20027;-79
2022/02/07 07:51:33;;;;;;;11.13;7.43;;;;;;;;;;4974723;28;20041;-75
2022/02/07 07:54:16;;;;;;;14.13;7.65;;;;;;;;;;4983831;28;20134;-75
2022/02/07 08:02:14;;;;;;;21.45;11.35;;;;;;;;;;5026338;28;20045;-74
2022/02/07 08:04:44;;;;;;;24.88;13.93;;;;;;;;;;5030459;28;20026;-78
2022/02/07 08:07:33;;;;;;;31.58;18.08;;;;;;;;;;5029712;28;20034;-74
2022/02/07 08:12:49;;;;;;;32.28;17.73;;;;;;;;;;5019633;28;20041;-77
2022/02/07 08:17:55;;;;;;;39.50;19.83;;;;;;;;;;5153043;23;20069;-79
2022/02/07 08:20:23;;;;;;;35.47;18.63;;;;;;;;;;4965437;28;20127;-78
2022/02/07 08:23:13;;;;;;;31.50;18.20;;;;;;;;;;4964870;28;20035;-78
2022/02/07 08:25:39;;;;;;;27.15;16.10;;;;;;;;;;4961262;28;20062;-78
2022/02/07 08:28:09;;;;;;;24.95;15.10;;;;;;;;;;4974072;28;20103;-77
2022/02/07 08:30:35;;;;;;;28.50;15.27;;;;;;;;;;4990106;28;20086;-78
2022/02/07 08:33:23;;;;;;;36.08;15.90;;;;;;;;;;4961764;28;20074;-77
2022/02/07 08:35:50;;;;;;;30.23;13.90;;;;;;;;;;4948747;29;20043;-78
2022/02/07 08:38:19;;;;;;;24.52;12.80;;;;;;;;;;4968161;28;20047;-77
2022/02/07 08:40:45;;;;;;;20.73;10.98;;;;;;;;;;4961303;28;20023;-78
2022/02/07 08:43:31;;;;;;;27.48;11.63;;;;;;;;;;4955013;29;20031;-78
2022/02/07 08:46:18;;;;;;;26.45;12.57;;;;;;;;;;4942903;29;20036;-75
2022/02/07 08:48:46;;;;;;;23.33;12.13;;;;;;;;;;4931949;29;20063;-76
2022/02/07 08:51:12;;;;;;;22.95;12.75;;;;;;;;;;4939547;29;20527;-76
2022/02/07 08:53:43;;;;;;;23.38;12.52;;;;;;;;;;4939038;29;20059;-75
2022/02/07 08:56:09;;;;;;;27.48;13.18;;;;;;;;;;4933732;29;20035;-75
2022/02/07 08:58:45;;;;;;;25.63;14.80;;;;;;;;;;4935639;29;20119;-75
2022/02/07 09:01:21;;;;;;;22.98;9.07;;;;;;;;;;4928914;29;20036;-76
2022/02/07 09:08:54;;;;;;;18.55;10.63;;;;;;;;;;4937971;29;20036;-75
2022/02/07 09:11:20;;;;;;;13.75;6.00;;;;;;;;;;4934723;29;20490;-76
2022/02/07 09:13:47;;;;;;;12.23;5.68;;;;;;;;;;4935225;29;20569;-76
2022/02/07 09:16:33;;;;;;;8.63;4.93;;;;;;;;;;4938297;29;20074;-74
2022/02/07 09:18:59;;;;;;;11.25;5.93;;;;;;;;;;4955692;28;20588;-74
2022/02/07 09:21:26;;;;;;;10.20;5.22;;;;;;;;;;4955647;29;20051;-75
2022/02/07 09:23:52;;;;;;;10.32;5.38;;;;;;;;;;4938013;29;20036;-75
2022/02/07 09:26:18;;;;;;;46.40;31.05;;;;;;;;;;4955039;28;20035;-75
2022/02/07 09:28:45;;;;;;;12.77;9.60;;;;;;;;;;4954358;29;20035;-75
2022/02/07 09:31:11;;;;;;;10.23;7.38;;;;;;;;;;4940442;28;20051;-76
2022/02/07 09:33:38;;;;;;;6.47;4.28;;;;;;;;;;4937589;29;20046;-74
2022/02/07 09:36:04;;;;;;;8.27;4.80;;;;;;;;;;4954567;29;20082;-76
2022/02/07 09:38:32;;;;;;;9.73;4.40;;;;;;;;;;4954511;28;20034;-75
2022/02/07 09:40:59;;;;;;;9.15;5.43;;;;;;;;;;4954326;28;20030;-76
2022/02/07 09:43:29;;;;;;;7.95;5.05;;;;;;;;;;4954397;29;20027;-75
2022/02/07 09:46:04;;;;;;;10.80;5.60;;;;;;;;;;4957510;28;20091;-76
2022/02/07 09:48:31;;;;;;;11.38;5.95;;;;;;;;;;4956918;29;20124;-75
2022/02/07 09:51:00;;;;;;;12.57;7.80;;;;;;;;;;4938626;29;20074;-75
2022/02/07 09:53:27;;;;;;;23.05;11.85;;;;;;;;;;4959338;29;20449;-76
2022/02/07 09:55:55;;;;;;;12.80;6.80;;;;;;;;;;4965388;29;20043;-77
2022/02/07 09:58:22;;;;;;;8.77;5.65;;;;;;;;;;4969029;29;20040;-75
2022/02/07 10:00:51;;;;;;;14.18;7.90;;;;;;;;;;4951250;29;20043;-77
2022/02/07 10:03:24;;;;;;;8.55;5.63;;;;;;;;;;4967726;29;20038;-76
2022/02/07 10:09:23;;;;;;;8.38;5.40;;;;;;;;;;4735366;26;20033;-79
2022/02/07 10:15:13;;;;;;;12.75;8.02;;;;;;;;;;5275693;23;20037;-79
2022/02/07 10:39:51;;;;;;;5.82;3.10;;;;;;;;;;4983157;28;20109;-78
2022/02/07 10:45:16;;;;;;;7.97;4.30;;;;;;;;;;4986578;28;20099;-79
2022/02/07 10:47:58;;;;;;;7.45;4.50;;;;;;;;;;4998487;28;20082;-78
2022/02/07 10:50:26;;;;;;;7.50;4.57;;;;;;;;;;4991342;28;20027;-78
2022/02/07 10:52:52;;;;;;;10.95;5.35;;;;;;;;;;4957806;28;20043;-76
2022/02/07 10:55:23;;;;;;;8.68;4.93;;;;;;;;;;4977168;28;20090;-77
2022/02/07 10:57:51;;;;;;;8.73;5.50;;;;;;;;;;4980150;28;20027;-75
2022/02/07 11:00:21;;;;;;;8.57;5.38;;;;;;;;;;4976474;28;20026;-75
2022/02/07 11:03:03;;;;;;;10.55;6.00;;;;;;;;;;4976159;28;20105;-73
2022/02/07 11:05:57;;;;;;;7.60;4.95;;;;;;;;;;4982225;28;20058;-78
2022/02/07 11:08:43;;;;;;;7.28;3.88;;;;;;;;;;4984907;28;20869;-77
2022/02/07 11:14:29;;;;;;;5.20;3.40;;;;;;;;;;4981731;28;20380;-76
2022/02/07 11:27:30;;;;;;;5.07;3.63;;;;;;;;;;4924283;29;20134;-76
2022/02/07 11:29:57;;;;;;;5.38;3.95;;;;;;;;;;4922705;29;20099;-76
2022/02/07 11:32:42;;;;;;;3.55;2.70;;;;;;;;;;4918780;29;20040;-78
2022/02/07 11:35:09;;;;;;;3.85;2.90;;;;;;;;;;4917113;29;20036;-77
2022/02/07 11:37:35;;;;;;;5.13;2.75;;;;;;;;;;4918598;29;20558;-79
2022/02/07 11:40:01;;;;;;;5.22;3.10;;;;;;;;;;4920667;29;20032;-78
2022/02/07 11:42:28;;;;;;;5.80;3.78;;;;;;;;;;4920075;29;20125;-76
2022/02/07 11:44:54;;;;;;;4.50;3.20;;;;;;;;;;4908839;29;20040;-76
2022/02/07 11:47:25;;;;;;;6.93;4.63;;;;;;;;;;4920835;29;20028;-77
2022/02/07 11:49:52;;;;;;;10.13;7.35;;;;;;;;;;4927850;29;20044;-78
2022/02/07 11:52:37;;;;;;;6.75;5.13;;;;;;;;;;4925095;29;20032;-76
2022/02/07 11:55:03;;;;;;;6.13;3.97;;;;;;;;;;4925211;29;20024;-76
2022/02/07 11:57:36;;;;;;;5.95;3.92;;;;;;;;;;4915550;29;20044;-75
2022/02/07 12:00:10;;;;;;;3.75;3.05;;;;;;;;;;4916551;29;20130;-75
2022/02/07 12:02:37;;;;;;;2.88;2.30;;;;;;;;;;4914157;29;20062;-76
2022/02/07 12:05:07;;;;;;;2.65;2.03;;;;;;;;;;4953196;29;20103;-76
2022/02/07 12:07:37;;;;;;;7.97;3.35;;;;;;;;;;4955899;29;20094;-76
2022/02/07 12:10:14;;;;;;;5.70;3.40;;;;;;;;;;4957579;29;20026;-76
2022/02/07 12:12:44;;;;;;;8.15;3.67;;;;;;;;;;4939861;29;20031;-77
2022/02/07 12:15:15;;;;;;;7.63;3.70;;;;;;;;;;4957842;28;20388;-75
2022/02/07 12:17:42;;;;;;;6.88;3.25;;;;;;;;;;4958623;29;20057;-78
2022/02/07 12:20:11;;;;;;;6.95;3.70;;;;;;;;;;4963599;28;20027;-76
2022/02/07 12:22:57;;;;;;;8.15;3.63;;;;;;;;;;4967802;28;20046;-74
2022/02/07 12:25:33;;;;;;;8.52;3.83;;;;;;;;;;4970679;28;20389;-73
2022/02/07 12:28:06;;;;;;;8.45;4.95;;;;;;;;;;4966401;28;20113;-76
2022/02/07 12:31:09;;;;;;;4.75;2.80;;;;;;;;;;4981515;28;20042;-78
2022/02/07 12:33:37;;;;;;;6.20;3.97;;;;;;;;;;4984231;28;20018;-77
2022/02/07 12:36:05;;;;;;;7.60;3.40;;;;;;;;;;4978468;28;20049;-78
2022/02/07 12:38:35;;;;;;;7.07;2.85;;;;;;;;;;4966352;28;20042;-77
2022/02/07 12:41:03;;;;;;;4.35;2.67;;;;;;;;;;4974440;28;20042;-77
2022/02/07 12:43:31;;;;;;;4.25;2.70;;;;;;;;;;4970724;28;20023;-77
2022/02/07 12:45:58;;;;;;;6.35;3.47;;;;;;;;;;4978044;28;20042;-79
2022/02/07 12:48:29;;;;;;;7.47;3.88;;;;;;;;;;4975548;28;20034;-77
2022/02/07 12:50:55;;;;;;;7.10;2.90;;;;;;;;;;4962755;28;20039;-76
2022/02/07 12:53:23;;;;;;;10.70;5.90;;;;;;;;;;4974858;28;20102;-76
2022/02/07 12:55:55;;;;;;;4.95;2.88;;;;;;;;;;4975083;28;20026;-77
2022/02/07 12:58:23;;;;;;;5.30;3.10;;;;;;;;;;4964474;28;20481;-75
2022/02/07 13:00:49;;;;;;;7.93;4.03;;;;;;;;;;4986776;28;20038;-77
2022/02/07 13:03:15;;;;;;;6.82;4.30;;;;;;;;;;4968725;28;20043;-75
2022/02/07 13:05:41;;;;;;;6.82;3.03;;;;;;;;;;4985804;28;20065;-76
2022/02/07 13:08:08;;;;;;;7.40;4.07;;;;;;;;;;4990340;28;20099;-75
2022/02/07 13:10:37;;;;;;;15.85;8.70;;;;;;;;;;4988855;28;20469;-73
2022/02/07 13:13:38;;;;;;;10.98;5.45;;;;;;;;;;4980532;28;20027;-77
2022/02/07 13:16:06;;;;;;;12.48;6.57;;;;;;;;;;4977001;28;20045;-75
2022/02/07 13:18:38;;;;;;;8.63;4.13;;;;;;;;;;4976839;28;20504;-76
2022/02/07 13:21:10;;;;;;;4.20;2.58;;;;;;;;;;4976022;28;20082;-76
2022/02/07 13:23:36;;;;;;;9.23;4.43;;;;;;;;;;4982377;28;20448;-78
2022/02/07 13:26:04;;;;;;;5.55;2.95;;;;;;;;;;4983136;28;20035;-78
2022/02/07 13:28:33;;;;;;;9.57;3.33;;;;;;;;;;4973643;28;20030;-77
2022/02/07 13:31:01;;;;;;;9.95;4.32;;;;;;;;;;5001667;28;20027;-76
2022/02/07 13:33:28;;;;;;;9.77;3.85;;;;;;;;;;4987772;28;20050;-77
2022/02/07 13:35:58;;;;;;;14.20;10.48;;;;;;;;;;4989785;28;20031;-77
2022/02/07 13:38:24;;;;;;;8.60;5.13;;;;;;;;;;4939558;28;20046;-76
2022/02/07 13:40:51;;;;;;;10.07;4.05;;;;;;;;;;4964189;28;20027;-77
2022/02/07 13:43:20;;;;;;;11.27;4.72;;;;;;;;;;4983796;28;20023;-75
2022/02/07 13:45:50;;;;;;;12.90;4.63;;;;;;;;;;4974585;28;20507;-75
2022/02/07 13:48:17;;;;;;;9.75;3.80;;;;;;;;;;4976270;28;20023;-75
2022/02/07 13:50:46;;;;;;;8.13;4.00;;;;;;;;;;4976939;28;20027;-75
2022/02/07 13:53:13;;;;;;;13.88;3.97;;;;;;;;;;4974129;28;20426;-73
2022/02/07 13:55:40;;;;;;;6.25;3.60;;;;;;;;;;4977017;28;20030;-75
2022/02/07 13:58:17;;;;;;;7.60;3.58;;;;;;;;;;4981491;28;20459;-73
2022/02/07 14:00:49;;;;;;;7.97;3.88;;;;;;;;;;4981245;28;20050;-72
2022/02/07 14:03:27;;;;;;;7.18;3.45;;;;;;;;;;4979405;28;20082;-71
2022/02/07 14:06:05;;;;;;;6.00;3.50;;;;;;;;;;4977589;28;20042;-74
2022/02/07 14:08:33;;;;;;;8.88;3.60;;;;;;;;;;4972309;28;20019;-74
2022/02/07 14:11:02;;;;;;;8.18;4.45;;;;;;;;;;4981043;28;20019;-74
2022/02/07 14:13:28;;;;;;;6.68;3.25;;;;;;;;;;4981885;28;20031;-72
2022/02/07 14:15:54;;;;;;;6.97;2.65;;;;;;;;;;4981500;28;20030;-73
2022/02/07 14:18:22;;;;;;;5.18;3.00;;;;;;;;;;4980395;28;20381;-74
2022/02/07 14:20:49;;;;;;;5.32;2.92;;;;;;;;;;4979754;28;20022;-75
2022/02/07 14:23:16;;;;;;;10.23;4.25;;;;;;;;;;4979479;28;20039;-73
2022/02/07 14:25:44;;;;;;;12.80;3.70;;;;;;;;;;4980492;28;20093;-74
2022/02/07 14:28:12;;;;;;;7.50;4.25;;;;;;;;;;4987493;28;20046;-78
2022/02/07 14:30:38;;;;;;;9.02;4.22;;;;;;;;;;4991348;28;20043;-75
2022/02/07 14:33:05;;;;;;;8.50;5.65;;;;;;;;;;4978847;28;20034;-75
2022/02/07 14:35:32;;;;;;;8.10;4.28;;;;;;;;;;4980791;28;20098;-75
2022/02/07 14:38:03;;;;;;;14.30;6.40;;;;;;;;;;4961248;28;20059;-74
2022/02/07 14:40:29;;;;;;;7.85;5.05;;;;;;;;;;4975927;28;20037;-71
2022/02/07 14:42:58;;;;;;;6.25;3.33;;;;;;;;;;4975689;28;20082;-71
2022/02/07 14:45:36;;;;;;;8.57;3.55;;;;;;;;;;4980114;28;20035;-71
2022/02/07 14:48:05;;;;;;;9.85;3.42;;;;;;;;;;4976297;28;20093;-72
2022/02/07 14:50:31;;;;;;;7.18;3.28;;;;;;;;;;4979871;28;20027;-72
2022/02/07 14:52:58;;;;;;;12.18;4.20;;;;;;;;;;4980841;28;20089;-71
2022/02/07 14:55:25;;;;;;;10.95;3.30;;;;;;;;;;4976737;28;20018;-71
2022/02/07 14:57:51;;;;;;;8.10;5.18;;;;;;;;;;4976724;28;20022;-71
2022/02/07 15:00:23;;;;;;;7.38;3.92;;;;;;;;;;4975848;28;20070;-72
2022/02/07 15:02:49;;;;;;;10.27;3.83;;;;;;;;;;4976118;28;20041;-71
2022/02/07 15:05:16;;;;;;;13.25;4.10;;;;;;;;;;4958973;28;20034;-72
2022/02/07 15:07:42;;;;;;;8.10;4.30;;;;;;;;;;4975743;28;20019;-71
2022/02/07 15:10:09;;;;;;;8.48;3.60;;;;;;;;;;4975100;28;20035;-71
2022/02/07 15:12:35;;;;;;;8.20;4.03;;;;;;;;;;4976044;28;20377;-70
2022/02/07 15:15:02;;;;;;;7.97;4.32;;;;;;;;;;4975923;28;20078;-73
2022/02/07 15:17:28;;;;;;;10.30;4.80;;;;;;;;;;4975733;28;20023;-72
2022/02/07 15:20:01;;;;;;;10.23;4.90;;;;;;;;;;4976305;28;20058;-72
2022/02/07 15:22:27;;;;;;;7.85;4.95;;;;;;;;;;4975263;28;20057;-73
2022/02/07 15:24:55;;;;;;;9.98;5.22;;;;;;;;;;4975810;28;20420;-70
2022/02/07 15:27:22;;;;;;;9.57;4.97;;;;;;;;;;4966992;28;20025;-74
2022/02/07 15:29:49;;;;;;;12.35;4.80;;;;;;;;;;4975960;28;20362;-73
2022/02/07 15:34:47;;;;;;;40.40;14.57;;;;;;;;;;4977229;28;20027;-71
2022/02/07 15:37:13;;;;;;;16.70;8.13;;;;;;;;;;4974863;28;20476;-71
2022/02/07 15:39:40;;;;;;;10.13;4.97;;;;;;;;;;4974769;28;20081;-71
2022/02/07 15:42:06;;;;;;;10.10;4.85;;;;;;;;;;4977223;28;20041;-72
2022/02/07 15:44:32;;;;;;;10.77;4.88;;;;;;;;;;4976180;28;20042;-70
2022/02/07 15:46:59;;;;;;;12.93;5.18;;;;;;;;;;4975204;28;20125;-72
2022/02/07 15:49:25;;;;;;;41.50;15.55;;;;;;;;;;4974355;28;20492;-70
2022/02/07 15:51:52;;;;;;;31.15;18.90;;;;;;;;;;4984626;28;20031;-74
2022/02/07 15:54:18;;;;;;;22.13;13.48;;;;;;;;;;4981605;28;20030;-75
2022/02/07 15:56:44;;;;;;;12.80;6.75;;;;;;;;;;4979473;28;20019;-72
2022/02/07 15:59:10;;;;;;;12.95;6.30;;;;;;;;;;4980548;28;20067;-75
2022/02/07 16:01:37;;;;;;;10.18;5.97;;;;;;;;;;4959055;28;20126;-75
2022/02/07 16:04:03;;;;;;;13.98;6.63;;;;;;;;;;4977161;28;20030;-76
2022/02/07 16:06:29;;;;;;;16.85;6.57;;;;;;;;;;4974828;28;20031;-76
2022/02/07 16:08:55;;;;;;;9.35;5.32;;;;;;;;;;4976702;28;20045;-74
2022/02/07 16:11:21;;;;;;;12.68;6.57;;;;;;;;;;4976794;28;20076;-74
2022/02/07 16:13:54;;;;;;;10.95;5.85;;;;;;;;;;4975365;28;20030;-73
2022/02/07 16:16:21;;;;;;;11.15;5.72;;;;;;;;;;4974746;28;20045;-72
2022/02/07 16:18:47;;;;;;;10.02;5.38;;;;;;;;;;4974607;28;20465;-72
2022/02/07 16:21:14;;;;;;;12.63;6.45;;;;;;;;;;4958594;28;20453;-76
2022/02/07 16:23:40;;;;;;;16.98;7.05;;;;;;;;;;4981144;28;20022;-74
2022/02/07 16:26:12;;;;;;;17.75;8.77;;;;;;;;;;4972923;28;20043;-78
2022/02/07 16:28:38;;;;;;;18.20;7.57;;;;;;;;;;4971805;28;20170;-74
2022/02/07 16:31:09;;;;;;;21.95;9.55;;;;;;;;;;4976503;28;20034;-77
2022/02/07 16:33:35;;;;;;;12.20;6.30;;;;;;;;;;4960792;28;20035;-76
2022/02/07 16:36:02;;;;;;;16.58;9.18;;;;;;;;;;4978234;28;20026;-74
2022/02/07 16:38:29;;;;;;;19.30;9.10;;;;;;;;;;4974677;28;20481;-73
2022/02/07 16:40:56;;;;;;;30.63;14.95;;;;;;;;;;4976210;28;20038;-75
2022/02/07 16:43:26;;;;;;;16.65;7.15;;;;;;;;;;4976296;28;20045;-74
2022/02/07 16:48:23;;;;;;;13.93;6.25;;;;;;;;;;4976886;28;20042;-73
2022/02/07 16:50:49;;;;;;;13.90;5.50;;;;;;;;;;4974818;28;20042;-75
2022/02/07 16:53:16;;;;;;;17.20;7.32;;;;;;;;;;4975466;28;20054;-72
2022/02/07 16:55:46;;;;;;;21.25;10.73;;;;;;;;;;4977798;28;20054;-78
2022/02/07 16:58:12;;;;;;;13.77;8.48;;;;;;;;;;4976679;28;20492;-73
2022/02/07 17:00:41;;;;;;;15.45;7.95;;;;;;;;;;4975520;28;20037;-76
2022/02/07 17:03:28;;;;;;;14.35;6.78;;;;;;;;;;4985444;28;20481;-80
2022/02/07 17:16:24;;;;;;;16.23;8.20;;;;;;;;;;5220937;23;20050;-79
2022/02/07 17:21:53;;;;;;;24.17;12.52;;;;;;;;;;4992980;28;20038;-74
2022/02/07 17:24:19;;;;;;;20.63;11.13;;;;;;;;;;4992297;28;20045;-72
2022/02/07 17:26:46;;;;;;;16.25;8.70;;;;;;;;;;4992622;28;20117;-75
2022/02/07 17:29:12;;;;;;;18.30;9.88;;;;;;;;;;4992400;28;20035;-74
2022/02/07 17:31:38;;;;;;;18.45;10.13;;;;;;;;;;4989018;28;20070;-75
2022/02/07 17:34:04;;;;;;;15.15;7.07;;;;;;;;;;4968466;28;20031;-72
2022/02/07 17:36:30;;;;;;;13.13;7.13;;;;;;;;;;4977755;28;20508;-73
2022/02/07 17:38:56;;;;;;;17.45;10.40;;;;;;;;;;4977338;28;20023;-71
2022/02/07 17:41:26;;;;;;;9.48;5.68;;;;;;;;;;4978818;28;20034;-72
2022/02/07 17:43:55;;;;;;;16.33;6.70;;;;;;;;;;4981324;28;20030;-73
2022/02/07 17:46:26;;;;;;;13.45;7.65;;;;;;;;;;4981442;28;20039;-73
2022/02/07 17:48:57;;;;;;;12.80;6.05;;;;;;;;;;4987305;28;20051;-76